sensor_id;sensor_type;location;lat;lon;timestamp;P1;durP1;ratioP1;P2;durP2;ratioP2
11090;SDS011;5599;52.210;21.046;2022-10-31T00:00:18;30.70;;;27.50;;
11090;SDS011;5599;52.210;21.046;2022-10-31T00:02:49;33.60;;;30.10;;
11090;SDS011;5599;52.210;21.046;2022-10-31T00:05:18;32.47;;;29.27;;
11090;SDS011;5599;52.210;21.046;2022-10-31T00:07:47;32.47;;;29.13;;
11090;SDS011;5599;52.210;21.046;2022-10-31T00:10:20;33.40;;;29.07;;
11090;SDS011;5599;52.210;21.046;2022-10-31T00:12:50;34.57;;;28.70;;
11090;SDS011;5599;52.210;21.046;2022-10-31T00:15:20;31.10;;;27.80;;
11090;SDS011;5599;52.210;21.046;2022-10-31T00:17:51;33.57;;;26.60;;
11090;SDS011;5599;52.210;21.046;2022-10-31T00:20:20;29.97;;;26.83;;
11090;SDS011;5599;52.210;21.046;2022-10-31T00:22:49;32.67;;;28.60;;
11090;SDS011;5599;52.210;21.046;2022-10-31T00:25:19;32.83;;;29.33;;
11090;SDS011;5599;52.210;21.046;2022-10-31T00:27:48;32.83;;;26.93;;
11090;SDS011;5599;52.210;21.046;2022-10-31T00:30:18;35.63;;;29.10;;
11090;SDS011;5599;52.210;21.046;2022-10-31T00:32:48;29.83;;;26.07;;
11090;SDS011;5599;52.210;21.046;2022-10-31T00:35:18;30.23;;;27.00;;
11090;SDS011;5599;52.210;21.046;2022-10-31T00:37:48;27.63;;;24.67;;
11090;SDS011;5599;52.210;21.046;2022-10-31T00:40:17;30.97;;;27.23;;
11090;SDS011;5599;52.210;21.046;2022-10-31T00:42:47;29.53;;;26.37;;
11090;SDS011;5599;52.210;21.046;2022-10-31T00:45:17;28.73;;;25.10;;
11090;SDS011;5599;52.210;21.046;2022-10-31T00:47:46;28.60;;;25.60;;
11090;SDS011;5599;52.210;21.046;2022-10-31T00:50:16;30.20;;;26.87;;
11090;SDS011;5599;52.210;21.046;2022-10-31T00:52:47;29.83;;;26.67;;
11090;SDS011;5599;52.210;21.046;2022-10-31T00:55:16;27.43;;;24.57;;
11090;SDS011;5599;52.210;21.046;2022-10-31T00:57:46;29.60;;;26.20;;
11090;SDS011;5599;52.210;21.046;2022-10-31T01:00:15;30.87;;;26.17;;
11090;SDS011;5599;52.210;21.046;2022-10-31T01:02:45;29.10;;;25.77;;
11090;SDS011;5599;52.210;21.046;2022-10-31T01:05:14;30.20;;;26.93;;
11090;SDS011;5599;52.210;21.046;2022-10-31T01:07:45;29.60;;;25.77;;
11090;SDS011;5599;52.210;21.046;2022-10-31T01:10:15;28.60;;;25.47;;
11090;SDS011;5599;52.210;21.046;2022-10-31T01:12:46;33.43;;;29.47;;
11090;SDS011;5599;52.210;21.046;2022-10-31T01:15:17;33.40;;;28.53;;
11090;SDS011;5599;52.210;21.046;2022-10-31T01:17:47;31.97;;;28.67;;
11090;SDS011;5599;52.210;21.046;2022-10-31T01:20:17;34.13;;;26.23;;
11090;SDS011;5599;52.210;21.046;2022-10-31T01:22:48;30.30;;;26.93;;
11090;SDS011;5599;52.210;21.046;2022-10-31T01:25:17;30.53;;;26.43;;
11090;SDS011;5599;52.210;21.046;2022-10-31T01:27:48;29.37;;;25.57;;
11090;SDS011;5599;52.210;21.046;2022-10-31T01:30:17;28.87;;;25.80;;
11090;SDS011;5599;52.210;21.046;2022-10-31T01:32:46;28.97;;;25.87;;
11090;SDS011;5599;52.210;21.046;2022-10-31T01:35:15;29.53;;;26.37;;
11090;SDS011;5599;52.210;21.046;2022-10-31T01:37:44;31.27;;;25.73;;
11090;SDS011;5599;52.210;21.046;2022-10-31T01:40:15;35.77;;;26.47;;
11090;SDS011;5599;52.210;21.046;2022-10-31T01:42:44;29.63;;;26.70;;
11090;SDS011;5599;52.210;21.046;2022-10-31T01:45:13;32.20;;;28.70;;
11090;SDS011;5599;52.210;21.046;2022-10-31T01:47:44;29.77;;;26.63;;
11090;SDS011;5599;52.210;21.046;2022-10-31T01:50:24;34.83;;;31.13;;
11090;SDS011;5599;52.210;21.046;2022-10-31T01:52:58;32.33;;;28.97;;
11090;SDS011;5599;52.210;21.046;2022-10-31T01:55:30;33.33;;;29.87;;
11090;SDS011;5599;52.210;21.046;2022-10-31T01:58:04;34.57;;;30.07;;
11090;SDS011;5599;52.210;21.046;2022-10-31T02:00:37;31.03;;;27.67;;
11090;SDS011;5599;52.210;21.046;2022-10-31T02:03:07;35.37;;;31.60;;
11090;SDS011;5599;52.210;21.046;2022-10-31T02:05:37;34.07;;;30.47;;
11090;SDS011;5599;52.210;21.046;2022-10-31T02:08:07;35.93;;;32.23;;
11090;SDS011;5599;52.210;21.046;2022-10-31T02:10:42;34.60;;;30.90;;
11090;SDS011;5599;52.210;21.046;2022-10-31T02:13:12;32.23;;;28.73;;
11090;SDS011;5599;52.210;21.046;2022-10-31T02:15:45;32.57;;;29.23;;
11090;SDS011;5599;52.210;21.046;2022-10-31T02:18:18;32.60;;;29.33;;
11090;SDS011;5599;52.210;21.046;2022-10-31T02:20:51;30.40;;;27.30;;
11090;SDS011;5599;52.210;21.046;2022-10-31T02:23:50;30.23;;;27.23;;
11090;SDS011;5599;52.210;21.046;2022-10-31T02:26:48;31.57;;;28.17;;
11090;SDS011;5599;52.210;21.046;2022-10-31T02:29:37;34.10;;;30.47;;
11090;SDS011;5599;52.210;21.046;2022-10-31T02:35:32;32.17;;;28.83;;
11090;SDS011;5599;52.210;21.046;2022-10-31T02:38:16;32.40;;;29.03;;
11090;SDS011;5599;52.210;21.046;2022-10-31T02:40:53;31.40;;;28.10;;
11090;SDS011;5599;52.210;21.046;2022-10-31T02:43:35;32.70;;;29.03;;
11090;SDS011;5599;52.210;21.046;2022-10-31T02:46:13;31.67;;;28.37;;
11090;SDS011;5599;52.210;21.046;2022-10-31T02:48:49;32.07;;;28.30;;
11090;SDS011;5599;52.210;21.046;2022-10-31T02:51:24;30.53;;;27.23;;
11090;SDS011;5599;52.210;21.046;2022-10-31T02:53:53;30.90;;;27.70;;
11090;SDS011;5599;52.210;21.046;2022-10-31T02:56:22;30.20;;;27.13;;
11090;SDS011;5599;52.210;21.046;2022-10-31T02:58:52;30.30;;;27.30;;
11090;SDS011;5599;52.210;21.046;2022-10-31T03:04:31;30.80;;;27.67;;
11090;SDS011;5599;52.210;21.046;2022-10-31T03:07:15;31.37;;;28.17;;
11090;SDS011;5599;52.210;21.046;2022-10-31T03:09:54;30.87;;;27.67;;
11090;SDS011;5599;52.210;21.046;2022-10-31T03:12:29;31.27;;;28.10;;
11090;SDS011;5599;52.210;21.046;2022-10-31T03:15:12;31.47;;;28.30;;
11090;SDS011;5599;52.210;21.046;2022-10-31T03:17:49;31.17;;;27.77;;
11090;SDS011;5599;52.210;21.046;2022-10-31T03:20:26;31.33;;;28.33;;
11090;SDS011;5599;52.210;21.046;2022-10-31T03:22:58;31.23;;;28.10;;
11090;SDS011;5599;52.210;21.046;2022-10-31T03:25:29;31.87;;;28.77;;
11090;SDS011;5599;52.210;21.046;2022-10-31T03:27:59;31.90;;;28.53;;
11090;SDS011;5599;52.210;21.046;2022-10-31T03:30:31;32.03;;;28.83;;
11090;SDS011;5599;52.210;21.046;2022-10-31T03:33:04;32.33;;;29.00;;
11090;SDS011;5599;52.210;21.046;2022-10-31T03:35:40;30.97;;;27.77;;
11090;SDS011;5599;52.210;21.046;2022-10-31T03:38:13;32.03;;;28.63;;
11090;SDS011;5599;52.210;21.046;2022-10-31T03:40:43;31.43;;;28.00;;
11090;SDS011;5599;52.210;21.046;2022-10-31T03:43:16;31.30;;;28.13;;
11090;SDS011;5599;52.210;21.046;2022-10-31T03:45:50;30.70;;;27.50;;
11090;SDS011;5599;52.210;21.046;2022-10-31T03:48:19;31.30;;;28.00;;
11090;SDS011;5599;52.210;21.046;2022-10-31T03:50:55;31.30;;;28.10;;
11090;SDS011;5599;52.210;21.046;2022-10-31T03:53:33;28.80;;;25.90;;
11090;SDS011;5599;52.210;21.046;2022-10-31T03:56:09;29.13;;;26.23;;
11090;SDS011;5599;52.210;21.046;2022-10-31T03:58:42;29.90;;;26.67;;
11090;SDS011;5599;52.210;21.046;2022-10-31T04:01:17;28.80;;;25.77;;
11090;SDS011;5599;52.210;21.046;2022-10-31T04:03:49;30.30;;;27.10;;
11090;SDS011;5599;52.210;21.046;2022-10-31T04:06:20;30.33;;;27.23;;
11090;SDS011;5599;52.210;21.046;2022-10-31T04:08:52;29.03;;;26.13;;
11090;SDS011;5599;52.210;21.046;2022-10-31T04:11:26;30.70;;;27.40;;
11090;SDS011;5599;52.210;21.046;2022-10-31T04:14:24;29.53;;;26.33;;
11090;SDS011;5599;52.210;21.046;2022-10-31T04:16:56;29.40;;;26.30;;
11090;SDS011;5599;52.210;21.046;2022-10-31T04:19:33;28.90;;;26.00;;
11090;SDS011;5599;52.210;21.046;2022-10-31T04:22:04;30.17;;;27.03;;
11090;SDS011;5599;52.210;21.046;2022-10-31T04:24:33;31.40;;;28.00;;
11090;SDS011;5599;52.210;21.046;2022-10-31T04:27:02;29.80;;;26.73;;
11090;SDS011;5599;52.210;21.046;2022-10-31T04:29:32;32.13;;;28.70;;
11090;SDS011;5599;52.210;21.046;2022-10-31T04:32:01;32.27;;;28.90;;
11090;SDS011;5599;52.210;21.046;2022-10-31T04:34:30;30.93;;;27.60;;
11090;SDS011;5599;52.210;21.046;2022-10-31T04:36:59;29.43;;;26.40;;
11090;SDS011;5599;52.210;21.046;2022-10-31T04:39:30;33.07;;;27.90;;
11090;SDS011;5599;52.210;21.046;2022-10-31T04:42:19;30.43;;;27.23;;
11090;SDS011;5599;52.210;21.046;2022-10-31T04:44:48;31.13;;;27.93;;
11090;SDS011;5599;52.210;21.046;2022-10-31T04:47:18;34.23;;;28.53;;
11090;SDS011;5599;52.210;21.046;2022-10-31T04:49:47;31.67;;;28.37;;
11090;SDS011;5599;52.210;21.046;2022-10-31T04:52:16;32.33;;;28.93;;
11090;SDS011;5599;52.210;21.046;2022-10-31T04:54:47;32.57;;;29.17;;
11090;SDS011;5599;52.210;21.046;2022-10-31T04:57:40;31.47;;;28.17;;
11090;SDS011;5599;52.210;21.046;2022-10-31T05:00:11;31.27;;;28.03;;
11090;SDS011;5599;52.210;21.046;2022-10-31T05:02:42;29.37;;;26.13;;
11090;SDS011;5599;52.210;21.046;2022-10-31T05:05:12;30.90;;;27.03;;
11090;SDS011;5599;52.210;21.046;2022-10-31T05:07:42;29.50;;;26.57;;
11090;SDS011;5599;52.210;21.046;2022-10-31T05:10:15;30.33;;;27.23;;
11090;SDS011;5599;52.210;21.046;2022-10-31T05:12:49;31.80;;;28.43;;
11090;SDS011;5599;52.210;21.046;2022-10-31T05:15:39;32.03;;;28.60;;
11090;SDS011;5599;52.210;21.046;2022-10-31T05:18:27;33.47;;;29.90;;
11090;SDS011;5599;52.210;21.046;2022-10-31T05:21:14;39.50;;;35.20;;
11090;SDS011;5599;52.210;21.046;2022-10-31T05:23:48;43.93;;;38.20;;
11090;SDS011;5599;52.210;21.046;2022-10-31T05:26:19;42.87;;;37.03;;
11090;SDS011;5599;52.210;21.046;2022-10-31T05:28:48;42.17;;;37.57;;
11090;SDS011;5599;52.210;21.046;2022-10-31T05:31:17;43.70;;;34.43;;
11090;SDS011;5599;52.210;21.046;2022-10-31T05:33:48;47.13;;;38.07;;
11090;SDS011;5599;52.210;21.046;2022-10-31T05:36:35;47.33;;;37.67;;
11090;SDS011;5599;52.210;21.046;2022-10-31T05:39:15;44.37;;;37.80;;
11090;SDS011;5599;52.210;21.046;2022-10-31T05:41:49;42.13;;;35.73;;
11090;SDS011;5599;52.210;21.046;2022-10-31T05:44:21;46.03;;;37.67;;
11090;SDS011;5599;52.210;21.046;2022-10-31T05:47:03;48.47;;;36.90;;
11090;SDS011;5599;52.210;21.046;2022-10-31T05:49:59;79.93;;;41.73;;
11090;SDS011;5599;52.210;21.046;2022-10-31T05:52:53;57.47;;;38.50;;
11090;SDS011;5599;52.210;21.046;2022-10-31T05:55:34;82.47;;;40.37;;
11090;SDS011;5599;52.210;21.046;2022-10-31T05:58:34;74.47;;;38.67;;
11090;SDS011;5599;52.210;21.046;2022-10-31T06:01:05;71.33;;;39.87;;
11090;SDS011;5599;52.210;21.046;2022-10-31T06:03:35;110.57;;;46.30;;
11090;SDS011;5599;52.210;21.046;2022-10-31T06:06:07;70.73;;;41.93;;
11090;SDS011;5599;52.210;21.046;2022-10-31T06:08:40;49.50;;;38.47;;
11090;SDS011;5599;52.210;21.046;2022-10-31T06:11:15;63.93;;;42.57;;
11090;SDS011;5599;52.210;21.046;2022-10-31T06:14:03;44.03;;;37.03;;
11090;SDS011;5599;52.210;21.046;2022-10-31T06:16:56;43.73;;;36.17;;
11090;SDS011;5599;52.210;21.046;2022-10-31T06:19:43;38.60;;;34.37;;
11090;SDS011;5599;52.210;21.046;2022-10-31T06:22:18;41.53;;;35.63;;
11090;SDS011;5599;52.210;21.046;2022-10-31T06:24:47;42.93;;;36.53;;
11090;SDS011;5599;52.210;21.046;2022-10-31T06:27:22;56.47;;;38.27;;
11090;SDS011;5599;52.210;21.046;2022-10-31T06:29:53;52.80;;;36.47;;
11090;SDS011;5599;52.210;21.046;2022-10-31T06:32:31;47.53;;;36.37;;
11090;SDS011;5599;52.210;21.046;2022-10-31T06:35:00;45.97;;;36.27;;
11090;SDS011;5599;52.210;21.046;2022-10-31T06:37:31;49.50;;;35.77;;
11090;SDS011;5599;52.210;21.046;2022-10-31T06:40:12;44.90;;;34.00;;
11090;SDS011;5599;52.210;21.046;2022-10-31T06:43:01;43.30;;;33.47;;
11090;SDS011;5599;52.210;21.046;2022-10-31T06:45:32;43.30;;;30.30;;
11090;SDS011;5599;52.210;21.046;2022-10-31T06:48:20;43.53;;;28.50;;
11090;SDS011;5599;52.210;21.046;2022-10-31T06:51:09;41.13;;;29.33;;
11090;SDS011;5599;52.210;21.046;2022-10-31T06:53:38;35.60;;;26.17;;
11090;SDS011;5599;52.210;21.046;2022-10-31T06:56:10;42.27;;;25.17;;
11090;SDS011;5599;52.210;21.046;2022-10-31T06:58:45;35.63;;;25.50;;
11090;SDS011;5599;52.210;21.046;2022-10-31T07:01:18;32.83;;;25.47;;
11090;SDS011;5599;52.210;21.046;2022-10-31T07:03:48;39.10;;;26.97;;
11090;SDS011;5599;52.210;21.046;2022-10-31T07:06:17;35.47;;;26.70;;
11090;SDS011;5599;52.210;21.046;2022-10-31T07:08:47;40.83;;;24.83;;
11090;SDS011;5599;52.210;21.046;2022-10-31T07:11:17;34.30;;;24.13;;
11090;SDS011;5599;52.210;21.046;2022-10-31T07:13:46;74.90;;;25.07;;
11090;SDS011;5599;52.210;21.046;2022-10-31T07:16:15;36.07;;;24.63;;
11090;SDS011;5599;52.210;21.046;2022-10-31T07:18:46;48.67;;;25.80;;
11090;SDS011;5599;52.210;21.046;2022-10-31T07:21:16;27.57;;;22.67;;
11090;SDS011;5599;52.210;21.046;2022-10-31T07:23:47;27.97;;;21.27;;
11090;SDS011;5599;52.210;21.046;2022-10-31T07:26:35;30.33;;;21.60;;
11090;SDS011;5599;52.210;21.046;2022-10-31T07:29:05;21.70;;;18.97;;
11090;SDS011;5599;52.210;21.046;2022-10-31T07:31:35;25.93;;;19.83;;
11090;SDS011;5599;52.210;21.046;2022-10-31T07:34:12;19.73;;;17.67;;
11090;SDS011;5599;52.210;21.046;2022-10-31T07:37:01;21.77;;;18.53;;
11090;SDS011;5599;52.210;21.046;2022-10-31T07:39:31;50.37;;;20.63;;
11090;SDS011;5599;52.210;21.046;2022-10-31T07:42:00;31.53;;;19.97;;
11090;SDS011;5599;52.210;21.046;2022-10-31T07:44:31;27.77;;;20.10;;
11090;SDS011;5599;52.210;21.046;2022-10-31T07:47:20;67.33;;;21.90;;
11090;SDS011;5599;52.210;21.046;2022-10-31T07:50:09;37.80;;;22.23;;
11090;SDS011;5599;52.210;21.046;2022-10-31T07:52:58;99.87;;;26.13;;
11090;SDS011;5599;52.210;21.046;2022-10-31T07:55:37;61.63;;;26.70;;
11090;SDS011;5599;52.210;21.046;2022-10-31T07:58:07;130.43;;;28.03;;
11090;SDS011;5599;52.210;21.046;2022-10-31T08:00:39;62.37;;;27.57;;
11090;SDS011;5599;52.210;21.046;2022-10-31T08:03:15;75.37;;;27.87;;
11090;SDS011;5599;52.210;21.046;2022-10-31T08:05:57;40.20;;;27.67;;
11090;SDS011;5599;52.210;21.046;2022-10-31T08:08:50;44.00;;;28.47;;
11090;SDS011;5599;52.210;21.046;2022-10-31T08:11:19;39.90;;;26.13;;
11090;SDS011;5599;52.210;21.046;2022-10-31T08:13:49;36.57;;;23.33;;
11090;SDS011;5599;52.210;21.046;2022-10-31T08:16:18;87.17;;;21.80;;
11090;SDS011;5599;52.210;21.046;2022-10-31T08:18:57;25.73;;;19.77;;
11090;SDS011;5599;52.210;21.046;2022-10-31T08:21:28;47.87;;;20.50;;
11090;SDS011;5599;52.210;21.046;2022-10-31T08:23:58;23.40;;;18.03;;
11090;SDS011;5599;52.210;21.046;2022-10-31T08:26:28;61.43;;;19.43;;
11090;SDS011;5599;52.210;21.046;2022-10-31T08:28:58;22.90;;;18.40;;
11090;SDS011;5599;52.210;21.046;2022-10-31T08:31:31;23.20;;;17.40;;
11090;SDS011;5599;52.210;21.046;2022-10-31T08:34:47;46.13;;;16.90;;
11090;SDS011;5599;52.210;21.046;2022-10-31T08:37:36;22.00;;;16.77;;
11090;SDS011;5599;52.210;21.046;2022-10-31T08:40:07;29.90;;;18.00;;
11090;SDS011;5599;52.210;21.046;2022-10-31T08:42:39;19.57;;;17.47;;
11090;SDS011;5599;52.210;21.046;2022-10-31T08:45:09;24.77;;;17.17;;
11090;SDS011;5599;52.210;21.046;2022-10-31T08:47:38;19.83;;;17.27;;
11090;SDS011;5599;52.210;21.046;2022-10-31T08:50:09;16.87;;;15.00;;
11090;SDS011;5599;52.210;21.046;2022-10-31T08:52:38;18.53;;;16.63;;
11090;SDS011;5599;52.210;21.046;2022-10-31T08:55:28;18.13;;;15.77;;
11090;SDS011;5599;52.210;21.046;2022-10-31T08:58:09;15.93;;;14.27;;
11090;SDS011;5599;52.210;21.046;2022-10-31T09:00:46;18.43;;;16.53;;
11090;SDS011;5599;52.210;21.046;2022-10-31T09:03:20;17.90;;;16.00;;
11090;SDS011;5599;52.210;21.046;2022-10-31T09:05:56;19.77;;;17.57;;
11090;SDS011;5599;52.210;21.046;2022-10-31T09:08:28;20.37;;;17.40;;
11090;SDS011;5599;52.210;21.046;2022-10-31T09:11:00;19.13;;;17.13;;
11090;SDS011;5599;52.210;21.046;2022-10-31T09:14:05;21.03;;;18.93;;
11090;SDS011;5599;52.210;21.046;2022-10-31T09:16:37;21.53;;;19.33;;
11090;SDS011;5599;52.210;21.046;2022-10-31T09:19:14;21.37;;;19.13;;
11090;SDS011;5599;52.210;21.046;2022-10-31T09:21:47;21.70;;;19.53;;
11090;SDS011;5599;52.210;21.046;2022-10-31T09:24:16;22.93;;;20.73;;
11090;SDS011;5599;52.210;21.046;2022-10-31T09:26:46;20.87;;;18.77;;
11090;SDS011;5599;52.210;21.046;2022-10-31T09:29:27;22.50;;;19.93;;
11090;SDS011;5599;52.210;21.046;2022-10-31T09:31:59;22.70;;;20.50;;
11090;SDS011;5599;52.210;21.046;2022-10-31T09:34:29;21.97;;;19.63;;
11090;SDS011;5599;52.210;21.046;2022-10-31T09:37:09;22.97;;;20.77;;
11090;SDS011;5599;52.210;21.046;2022-10-31T09:39:39;24.10;;;21.70;;
11090;SDS011;5599;52.210;21.046;2022-10-31T09:42:23;24.73;;;22.00;;
11090;SDS011;5599;52.210;21.046;2022-10-31T09:45:19;24.87;;;22.47;;
11090;SDS011;5599;52.210;21.046;2022-10-31T09:48:05;28.30;;;23.77;;
11090;SDS011;5599;52.210;21.046;2022-10-31T09:51:10;24.27;;;21.87;;
11090;SDS011;5599;52.210;21.046;2022-10-31T09:53:53;25.93;;;23.43;;
11090;SDS011;5599;52.210;21.046;2022-10-31T09:56:28;27.73;;;24.93;;
11090;SDS011;5599;52.210;21.046;2022-10-31T09:59:00;28.40;;;25.40;;
11090;SDS011;5599;52.210;21.046;2022-10-31T10:01:37;27.87;;;25.17;;
11090;SDS011;5599;52.210;21.046;2022-10-31T10:04:22;27.37;;;24.47;;
11090;SDS011;5599;52.210;21.046;2022-10-31T10:07:22;26.37;;;23.87;;
11090;SDS011;5599;52.210;21.046;2022-10-31T10:10:20;26.73;;;24.03;;
11090;SDS011;5599;52.210;21.046;2022-10-31T10:13:29;24.23;;;21.73;;
11090;SDS011;5599;52.210;21.046;2022-10-31T10:16:09;25.77;;;23.30;;
11090;SDS011;5599;52.210;21.046;2022-10-31T10:18:52;25.27;;;22.73;;
11090;SDS011;5599;52.210;21.046;2022-10-31T10:21:33;25.07;;;22.57;;
11090;SDS011;5599;52.210;21.046;2022-10-31T10:24:17;25.33;;;22.83;;
11090;SDS011;5599;52.210;21.046;2022-10-31T10:26:57;22.27;;;19.97;;
11090;SDS011;5599;52.210;21.046;2022-10-31T10:29:38;23.33;;;20.90;;
11090;SDS011;5599;52.210;21.046;2022-10-31T10:32:12;21.90;;;19.80;;
11090;SDS011;5599;52.210;21.046;2022-10-31T10:34:48;22.07;;;19.87;;
11090;SDS011;5599;52.210;21.046;2022-10-31T10:37:24;20.73;;;18.63;;
11090;SDS011;5599;52.210;21.046;2022-10-31T10:40:00;19.83;;;17.83;;
11090;SDS011;5599;52.210;21.046;2022-10-31T10:42:41;18.67;;;16.60;;
11090;SDS011;5599;52.210;21.046;2022-10-31T10:45:30;19.73;;;17.57;;
11090;SDS011;5599;52.210;21.046;2022-10-31T10:48:21;18.50;;;16.77;;
11090;SDS011;5599;52.210;21.046;2022-10-31T10:51:00;22.87;;;20.67;;
11090;SDS011;5599;52.210;21.046;2022-10-31T10:54:13;17.80;;;15.90;;
11090;SDS011;5599;52.210;21.046;2022-10-31T10:57:07;18.70;;;16.63;;
11090;SDS011;5599;52.210;21.046;2022-10-31T10:59:51;18.33;;;16.07;;
11090;SDS011;5599;52.210;21.046;2022-10-31T11:02:35;18.60;;;16.60;;
11090;SDS011;5599;52.210;21.046;2022-10-31T11:05:13;18.67;;;16.60;;
11090;SDS011;5599;52.210;21.046;2022-10-31T11:08:25;17.77;;;15.98;;
11090;SDS011;5599;52.210;21.046;2022-10-31T11:11:22;17.23;;;15.43;;
11090;SDS011;5599;52.210;21.046;2022-10-31T11:14:35;16.80;;;15.13;;
11090;SDS011;5599;52.210;21.046;2022-10-31T11:21:05;16.00;;;14.23;;
11090;SDS011;5599;52.210;21.046;2022-10-31T11:24:12;18.55;;;15.02;;
11090;SDS011;5599;52.210;21.046;2022-10-31T11:27:03;16.65;;;14.95;;
11090;SDS011;5599;52.210;21.046;2022-10-31T11:30:06;16.60;;;14.77;;
11090;SDS011;5599;52.210;21.046;2022-10-31T11:32:40;18.17;;;16.05;;
11090;SDS011;5599;52.210;21.046;2022-10-31T11:35:42;17.85;;;16.02;;
11090;SDS011;5599;52.210;21.046;2022-10-31T11:38:31;17.77;;;15.97;;
11090;SDS011;5599;52.210;21.046;2022-10-31T11:41:10;18.23;;;16.42;;
11090;SDS011;5599;52.210;21.046;2022-10-31T11:44:27;19.23;;;17.17;;
11090;SDS011;5599;52.210;21.046;2022-10-31T11:47:00;18.48;;;16.60;;
11090;SDS011;5599;52.210;21.046;2022-10-31T11:49:32;18.48;;;16.48;;
11090;SDS011;5599;52.210;21.046;2022-10-31T11:52:07;20.05;;;16.75;;
11090;SDS011;5599;52.210;21.046;2022-10-31T11:54:42;18.38;;;15.73;;
11090;SDS011;5599;52.210;21.046;2022-10-31T11:57:22;19.33;;;16.25;;
11090;SDS011;5599;52.210;21.046;2022-10-31T11:59:55;20.73;;;17.42;;
11090;SDS011;5599;52.210;21.046;2022-10-31T12:02:25;18.45;;;16.25;;
11090;SDS011;5599;52.210;21.046;2022-10-31T12:04:57;18.77;;;16.83;;
11090;SDS011;5599;52.210;21.046;2022-10-31T12:07:31;17.58;;;15.80;;
11090;SDS011;5599;52.210;21.046;2022-10-31T12:10:02;17.33;;;15.55;;
11090;SDS011;5599;52.210;21.046;2022-10-31T12:12:42;18.10;;;16.20;;
11090;SDS011;5599;52.210;21.046;2022-10-31T12:15:31;17.80;;;15.80;;
11090;SDS011;5599;52.210;21.046;2022-10-31T12:18:17;17.17;;;15.38;;
11090;SDS011;5599;52.210;21.046;2022-10-31T12:20:56;19.65;;;16.10;;
11090;SDS011;5599;52.210;21.046;2022-10-31T12:23:41;20.02;;;16.83;;
11090;SDS011;5599;52.210;21.046;2022-10-31T12:26:20;19.00;;;16.10;;
11090;SDS011;5599;52.210;21.046;2022-10-31T12:29:02;19.13;;;17.17;;
11090;SDS011;5599;52.210;21.046;2022-10-31T12:31:49;18.63;;;16.73;;
11090;SDS011;5599;52.210;21.046;2022-10-31T12:34:36;19.27;;;17.25;;
11090;SDS011;5599;52.210;21.046;2022-10-31T12:37:20;19.77;;;16.58;;
11090;SDS011;5599;52.210;21.046;2022-10-31T12:40:02;20.05;;;17.95;;
11090;SDS011;5599;52.210;21.046;2022-10-31T12:42:47;23.80;;;16.58;;
11090;SDS011;5599;52.210;21.046;2022-10-31T12:45:31;18.45;;;16.05;;
11090;SDS011;5599;52.210;21.046;2022-10-31T12:51:24;19.00;;;16.48;;
11090;SDS011;5599;52.210;21.046;2022-10-31T12:54:15;17.90;;;16.02;;
11090;SDS011;5599;52.210;21.046;2022-10-31T12:57:00;18.13;;;15.05;;
11090;SDS011;5599;52.210;21.046;2022-10-31T12:59:36;19.35;;;15.02;;
11090;SDS011;5599;52.210;21.046;2022-10-31T13:02:10;17.50;;;15.05;;
11090;SDS011;5599;52.210;21.046;2022-10-31T13:04:58;18.20;;;13.80;;
11090;SDS011;5599;52.210;21.046;2022-10-31T13:07:31;18.67;;;16.40;;
11090;SDS011;5599;52.210;21.046;2022-10-31T13:10:07;17.23;;;15.35;;
11090;SDS011;5599;52.210;21.046;2022-10-31T13:12:48;16.52;;;14.80;;
11090;SDS011;5599;52.210;21.046;2022-10-31T13:15:20;14.30;;;12.90;;
11090;SDS011;5599;52.210;21.046;2022-10-31T13:18:00;16.08;;;12.65;;
11090;SDS011;5599;52.210;21.046;2022-10-31T13:20:38;13.88;;;11.38;;
11090;SDS011;5599;52.210;21.046;2022-10-31T13:23:10;12.82;;;11.52;;
11090;SDS011;5599;52.210;21.046;2022-10-31T13:26:08;14.80;;;12.52;;
11090;SDS011;5599;52.210;21.046;2022-10-31T13:28:41;18.25;;;16.15;;
11090;SDS011;5599;52.210;21.046;2022-10-31T13:31:15;21.25;;;17.75;;
11090;SDS011;5599;52.210;21.046;2022-10-31T13:33:46;20.80;;;18.58;;
11090;SDS011;5599;52.210;21.046;2022-10-31T13:36:23;21.20;;;18.13;;
11090;SDS011;5599;52.210;21.046;2022-10-31T13:39:03;19.73;;;17.77;;
11090;SDS011;5599;52.210;21.046;2022-10-31T13:41:46;23.50;;;19.00;;
11090;SDS011;5599;52.210;21.046;2022-10-31T13:44:20;21.10;;;18.80;;
11090;SDS011;5599;52.210;21.046;2022-10-31T13:46:53;20.02;;;17.98;;
11090;SDS011;5599;52.210;21.046;2022-10-31T13:49:26;21.42;;;19.20;;
11090;SDS011;5599;52.210;21.046;2022-10-31T13:52:25;21.35;;;18.08;;
11090;SDS011;5599;52.210;21.046;2022-10-31T13:54:56;21.40;;;18.02;;
11090;SDS011;5599;52.210;21.046;2022-10-31T13:57:30;21.70;;;18.83;;
11090;SDS011;5599;52.210;21.046;2022-10-31T14:00:03;21.38;;;19.10;;
11090;SDS011;5599;52.210;21.046;2022-10-31T14:02:44;23.55;;;19.70;;
11090;SDS011;5599;52.210;21.046;2022-10-31T14:05:21;20.95;;;18.65;;
11090;SDS011;5599;52.210;21.046;2022-10-31T14:07:54;26.55;;;20.88;;
11090;SDS011;5599;52.210;21.046;2022-10-31T14:10:35;23.80;;;20.98;;
11090;SDS011;5599;52.210;21.046;2022-10-31T14:13:07;22.88;;;20.45;;
11090;SDS011;5599;52.210;21.046;2022-10-31T14:15:51;22.88;;;20.40;;
11090;SDS011;5599;52.210;21.046;2022-10-31T14:18:24;23.92;;;21.35;;
11090;SDS011;5599;52.210;21.046;2022-10-31T14:20:59;22.90;;;20.60;;
11090;SDS011;5599;52.210;21.046;2022-10-31T14:23:33;22.55;;;20.25;;
11090;SDS011;5599;52.210;21.046;2022-10-31T14:26:29;23.88;;;21.33;;
11090;SDS011;5599;52.210;21.046;2022-10-31T14:29:02;26.80;;;23.95;;
11090;SDS011;5599;52.210;21.046;2022-10-31T14:31:51;25.42;;;22.65;;
11090;SDS011;5599;52.210;21.046;2022-10-31T14:34:24;27.58;;;23.58;;
11090;SDS011;5599;52.210;21.046;2022-10-31T14:40:10;26.70;;;23.90;;
11090;SDS011;5599;52.210;21.046;2022-10-31T14:42:55;27.10;;;23.70;;
11090;SDS011;5599;52.210;21.046;2022-10-31T14:45:42;27.20;;;24.07;;
11090;SDS011;5599;52.210;21.046;2022-10-31T14:48:24;27.10;;;24.30;;
11090;SDS011;5599;52.210;21.046;2022-10-31T14:51:02;25.20;;;22.70;;
11090;SDS011;5599;52.210;21.046;2022-10-31T14:53:53;24.77;;;22.27;;
11090;SDS011;5599;52.210;21.046;2022-10-31T14:56:28;25.10;;;22.43;;
11090;SDS011;5599;52.210;21.046;2022-10-31T14:59:01;24.07;;;21.57;;
11090;SDS011;5599;52.210;21.046;2022-10-31T15:01:50;24.07;;;21.13;;
11090;SDS011;5599;52.210;21.046;2022-10-31T15:04:25;29.87;;;21.67;;
11090;SDS011;5599;52.210;21.046;2022-10-31T15:07:00;26.97;;;22.60;;
11090;SDS011;5599;52.210;21.046;2022-10-31T15:09:40;27.00;;;22.87;;
11090;SDS011;5599;52.210;21.046;2022-10-31T15:12:24;27.07;;;22.40;;
11090;SDS011;5599;52.210;21.046;2022-10-31T15:15:09;32.00;;;23.90;;
11090;SDS011;5599;52.210;21.046;2022-10-31T15:17:43;30.60;;;24.20;;
11090;SDS011;5599;52.210;21.046;2022-10-31T15:20:20;28.03;;;24.17;;
11090;SDS011;5599;52.210;21.046;2022-10-31T15:22:52;30.67;;;23.83;;
11090;SDS011;5599;52.210;21.046;2022-10-31T15:25:28;33.17;;;25.60;;
11090;SDS011;5599;52.210;21.046;2022-10-31T15:28:12;33.77;;;25.57;;
11090;SDS011;5599;52.210;21.046;2022-10-31T15:30:49;30.73;;;24.20;;
11090;SDS011;5599;52.210;21.046;2022-10-31T15:33:24;31.23;;;25.93;;
11090;SDS011;5599;52.210;21.046;2022-10-31T15:36:05;34.97;;;26.20;;